sensor_id;sensor_type;location;lat;lon;timestamp;P1;durP1;ratioP1;P2;durP2;ratioP2
3601;SDS011;1815;50.950;6.920;2022-08-03T00:00:37;3.20;;;2.20;;
3601;SDS011;1815;50.950;6.920;2022-08-03T00:03:04;2.57;;;1.90;;
3601;SDS011;1815;50.950;6.920;2022-08-03T00:05:30;4.40;;;1.80;;
3601;SDS011;1815;50.950;6.920;2022-08-03T00:07:57;2.20;;;1.70;;
3601;SDS011;1815;50.950;6.920;2022-08-03T00:10:26;4.33;;;1.93;;
3601;SDS011;1815;50.950;6.920;2022-08-03T00:12:52;4.20;;;1.90;;
3601;SDS011;1815;50.950;6.920;2022-08-03T00:15:18;2.53;;;2.00;;
3601;SDS011;1815;50.950;6.920;2022-08-03T00:17:44;3.73;;;1.87;;
3601;SDS011;1815;50.950;6.920;2022-08-03T00:20:10;3.37;;;1.90;;
3601;SDS011;1815;50.950;6.920;2022-08-03T00:22:36;3.13;;;2.10;;
3601;SDS011;1815;50.950;6.920;2022-08-03T00:25:02;4.23;;;2.20;;
3601;SDS011;1815;50.950;6.920;2022-08-03T00:27:28;2.27;;;1.60;;
3601;SDS011;1815;50.950;6.920;2022-08-03T00:29:54;4.60;;;1.70;;
3601;SDS011;1815;50.950;6.920;2022-08-03T00:32:20;5.10;;;2.50;;
3601;SDS011;1815;50.950;6.920;2022-08-03T00:34:45;2.80;;;1.90;;
3601;SDS011;1815;50.950;6.920;2022-08-03T00:37:11;5.63;;;1.80;;
3601;SDS011;1815;50.950;6.920;2022-08-03T00:39:37;4.60;;;1.63;;
3601;SDS011;1815;50.950;6.920;2022-08-03T00:42:03;4.30;;;1.83;;
3601;SDS011;1815;50.950;6.920;2022-08-03T00:44:29;2.70;;;1.77;;
3601;SDS011;1815;50.950;6.920;2022-08-03T00:46:55;3.73;;;1.97;;
3601;SDS011;1815;50.950;6.920;2022-08-03T00:49:21;5.40;;;2.03;;
3601;SDS011;1815;50.950;6.920;2022-08-03T00:51:47;4.20;;;2.07;;
3601;SDS011;1815;50.950;6.920;2022-08-03T00:54:13;2.77;;;1.50;;
3601;SDS011;1815;50.950;6.920;2022-08-03T00:56:40;2.87;;;1.80;;
3601;SDS011;1815;50.950;6.920;2022-08-03T00:59:08;3.10;;;1.70;;
3601;SDS011;1815;50.950;6.920;2022-08-03T01:01:34;4.47;;;2.10;;
3601;SDS011;1815;50.950;6.920;2022-08-03T01:04:01;2.43;;;1.80;;
3601;SDS011;1815;50.950;6.920;2022-08-03T01:06:33;2.20;;;1.60;;
3601;SDS011;1815;50.950;6.920;2022-08-03T01:09:30;2.20;;;1.53;;
3601;SDS011;1815;50.950;6.920;2022-08-03T01:15:08;3.30;;;1.90;;
3601;SDS011;1815;50.950;6.920;2022-08-03T01:17:36;3.60;;;1.60;;
3601;SDS011;1815;50.950;6.920;2022-08-03T01:20:11;3.50;;;1.83;;
3601;SDS011;1815;50.950;6.920;2022-08-03T01:28:05;2.57;;;1.30;;
3601;SDS011;1815;50.950;6.920;2022-08-03T01:30:41;5.00;;;2.00;;
3601;SDS011;1815;50.950;6.920;2022-08-03T01:33:14;2.50;;;1.50;;
3601;SDS011;1815;50.950;6.920;2022-08-03T01:35:45;2.13;;;1.60;;
3601;SDS011;1815;50.950;6.920;2022-08-03T01:41:07;2.20;;;1.73;;
3601;SDS011;1815;50.950;6.920;2022-08-03T01:43:38;2.30;;;1.40;;
3601;SDS011;1815;50.950;6.920;2022-08-03T01:46:06;2.53;;;1.83;;
3601;SDS011;1815;50.950;6.920;2022-08-03T01:48:35;2.93;;;2.33;;
3601;SDS011;1815;50.950;6.920;2022-08-03T01:51:04;5.90;;;2.40;;
3601;SDS011;1815;50.950;6.920;2022-08-03T01:53:32;4.07;;;2.10;;
3601;SDS011;1815;50.950;6.920;2022-08-03T01:55:59;3.40;;;2.03;;
3601;SDS011;1815;50.950;6.920;2022-08-03T01:58:27;2.10;;;1.50;;
3601;SDS011;1815;50.950;6.920;2022-08-03T02:00:55;2.03;;;1.50;;
3601;SDS011;1815;50.950;6.920;2022-08-03T02:03:27;2.43;;;1.40;;
3601;SDS011;1815;50.950;6.920;2022-08-03T02:05:53;3.10;;;2.20;;
3601;SDS011;1815;50.950;6.920;2022-08-03T02:08:22;2.47;;;1.30;;
3601;SDS011;1815;50.950;6.920;2022-08-03T02:10:51;2.57;;;1.50;;
3601;SDS011;1815;50.950;6.920;2022-08-03T02:13:19;3.23;;;1.77;;
3601;SDS011;1815;50.950;6.920;2022-08-03T02:15:46;2.90;;;1.50;;
3601;SDS011;1815;50.950;6.920;2022-08-03T02:18:13;4.03;;;1.63;;
3601;SDS011;1815;50.950;6.920;2022-08-03T02:20:40;2.40;;;1.40;;
3601;SDS011;1815;50.950;6.920;2022-08-03T02:23:07;2.33;;;1.63;;
3601;SDS011;1815;50.950;6.920;2022-08-03T02:25:34;2.57;;;1.53;;
3601;SDS011;1815;50.950;6.920;2022-08-03T02:28:10;2.30;;;1.30;;
3601;SDS011;1815;50.950;6.920;2022-08-03T02:30:40;4.23;;;1.30;;
3601;SDS011;1815;50.950;6.920;2022-08-03T02:33:11;3.60;;;2.20;;
3601;SDS011;1815;50.950;6.920;2022-08-03T02:35:42;2.50;;;1.20;;
3601;SDS011;1815;50.950;6.920;2022-08-03T02:38:09;2.27;;;1.57;;
3601;SDS011;1815;50.950;6.920;2022-08-03T02:40:37;2.13;;;1.37;;
3601;SDS011;1815;50.950;6.920;2022-08-03T02:43:07;2.40;;;1.67;;
3601;SDS011;1815;50.950;6.920;2022-08-03T02:45:37;4.50;;;1.40;;
3601;SDS011;1815;50.950;6.920;2022-08-03T02:48:08;1.63;;;1.30;;
3601;SDS011;1815;50.950;6.920;2022-08-03T02:50:36;1.87;;;1.53;;
3601;SDS011;1815;50.950;6.920;2022-08-03T02:53:03;3.10;;;1.40;;
3601;SDS011;1815;50.950;6.920;2022-08-03T02:55:30;2.60;;;1.70;;
3601;SDS011;1815;50.950;6.920;2022-08-03T02:57:59;2.03;;;1.40;;
3601;SDS011;1815;50.950;6.920;2022-08-03T03:00:27;2.20;;;1.60;;
3601;SDS011;1815;50.950;6.920;2022-08-03T03:02:56;2.03;;;1.83;;
3601;SDS011;1815;50.950;6.920;2022-08-03T03:05:23;1.93;;;1.67;;
3601;SDS011;1815;50.950;6.920;2022-08-03T03:07:49;4.03;;;1.73;;
3601;SDS011;1815;50.950;6.920;2022-08-03T03:10:15;3.13;;;2.03;;
3601;SDS011;1815;50.950;6.920;2022-08-03T03:12:41;2.20;;;1.43;;
3601;SDS011;1815;50.950;6.920;2022-08-03T03:15:09;2.30;;;1.73;;
3601;SDS011;1815;50.950;6.920;2022-08-03T03:17:35;2.97;;;1.70;;
3601;SDS011;1815;50.950;6.920;2022-08-03T03:20:03;1.83;;;1.40;;
3601;SDS011;1815;50.950;6.920;2022-08-03T03:22:30;2.67;;;1.77;;
3601;SDS011;1815;50.950;6.920;2022-08-03T03:24:58;1.70;;;1.37;;
3601;SDS011;1815;50.950;6.920;2022-08-03T03:27:24;2.30;;;1.70;;
3601;SDS011;1815;50.950;6.920;2022-08-03T03:29:50;2.80;;;1.73;;
3601;SDS011;1815;50.950;6.920;2022-08-03T03:32:16;2.50;;;1.77;;
3601;SDS011;1815;50.950;6.920;2022-08-03T03:34:42;3.30;;;1.93;;
3601;SDS011;1815;50.950;6.920;2022-08-03T03:37:08;3.33;;;1.47;;
3601;SDS011;1815;50.950;6.920;2022-08-03T03:39:34;2.50;;;2.10;;
3601;SDS011;1815;50.950;6.920;2022-08-03T03:42:01;2.10;;;1.80;;
3601;SDS011;1815;50.950;6.920;2022-08-03T03:44:27;1.70;;;1.43;;
3601;SDS011;1815;50.950;6.920;2022-08-03T03:46:54;2.57;;;1.30;;
3601;SDS011;1815;50.950;6.920;2022-08-03T03:49:21;2.33;;;1.93;;
3601;SDS011;1815;50.950;6.920;2022-08-03T03:51:48;3.00;;;2.10;;
3601;SDS011;1815;50.950;6.920;2022-08-03T03:54:16;2.63;;;1.70;;
3601;SDS011;1815;50.950;6.920;2022-08-03T03:56:43;2.67;;;1.83;;
3601;SDS011;1815;50.950;6.920;2022-08-03T03:59:09;2.40;;;1.63;;
3601;SDS011;1815;50.950;6.920;2022-08-03T04:01:35;2.10;;;1.70;;
3601;SDS011;1815;50.950;6.920;2022-08-03T04:04:02;2.33;;;1.67;;
3601;SDS011;1815;50.950;6.920;2022-08-03T04:06:47;2.10;;;1.60;;
3601;SDS011;1815;50.950;6.920;2022-08-03T04:09:32;2.03;;;1.43;;
3601;SDS011;1815;50.950;6.920;2022-08-03T04:12:19;2.83;;;1.70;;
3601;SDS011;1815;50.950;6.920;2022-08-03T04:14:48;2.20;;;1.50;;
3601;SDS011;1815;50.950;6.920;2022-08-03T04:17:18;2.20;;;1.87;;
3601;SDS011;1815;50.950;6.920;2022-08-03T04:19:46;3.50;;;2.10;;
3601;SDS011;1815;50.950;6.920;2022-08-03T04:22:17;3.07;;;1.70;;
3601;SDS011;1815;50.950;6.920;2022-08-03T04:24:51;1.90;;;1.50;;
3601;SDS011;1815;50.950;6.920;2022-08-03T04:27:23;2.00;;;1.50;;
3601;SDS011;1815;50.950;6.920;2022-08-03T04:29:51;2.27;;;1.43;;
3601;SDS011;1815;50.950;6.920;2022-08-03T04:32:19;2.20;;;1.50;;
3601;SDS011;1815;50.950;6.920;2022-08-03T04:34:49;5.50;;;1.57;;
3601;SDS011;1815;50.950;6.920;2022-08-03T04:37:20;2.30;;;1.50;;
3601;SDS011;1815;50.950;6.920;2022-08-03T04:39:57;3.17;;;1.80;;
3601;SDS011;1815;50.950;6.920;2022-08-03T04:42:26;2.30;;;1.70;;
3601;SDS011;1815;50.950;6.920;2022-08-03T04:44:55;2.30;;;1.80;;
3601;SDS011;1815;50.950;6.920;2022-08-03T04:47:22;2.40;;;1.97;;
3601;SDS011;1815;50.950;6.920;2022-08-03T04:49:48;1.90;;;1.40;;
3601;SDS011;1815;50.950;6.920;2022-08-03T04:52:14;2.90;;;1.53;;
3601;SDS011;1815;50.950;6.920;2022-08-03T04:54:43;3.73;;;2.23;;
3601;SDS011;1815;50.950;6.920;2022-08-03T04:57:10;2.77;;;1.63;;
3601;SDS011;1815;50.950;6.920;2022-08-03T04:59:36;2.47;;;1.80;;
3601;SDS011;1815;50.950;6.920;2022-08-03T05:02:03;2.23;;;1.50;;
3601;SDS011;1815;50.950;6.920;2022-08-03T05:04:28;2.20;;;1.87;;
3601;SDS011;1815;50.950;6.920;2022-08-03T05:06:54;2.00;;;1.40;;
3601;SDS011;1815;50.950;6.920;2022-08-03T05:09:20;2.97;;;1.80;;
3601;SDS011;1815;50.950;6.920;2022-08-03T05:11:47;3.40;;;1.60;;
3601;SDS011;1815;50.950;6.920;2022-08-03T05:14:12;3.07;;;1.67;;
3601;SDS011;1815;50.950;6.920;2022-08-03T05:16:38;4.20;;;2.13;;
3601;SDS011;1815;50.950;6.920;2022-08-03T05:19:04;1.70;;;1.47;;
3601;SDS011;1815;50.950;6.920;2022-08-03T05:21:30;3.93;;;2.00;;
3601;SDS011;1815;50.950;6.920;2022-08-03T05:23:56;4.50;;;1.97;;
3601;SDS011;1815;50.950;6.920;2022-08-03T05:26:21;2.53;;;1.80;;
3601;SDS011;1815;50.950;6.920;2022-08-03T05:28:47;2.00;;;1.80;;
3601;SDS011;1815;50.950;6.920;2022-08-03T05:31:13;2.33;;;1.73;;
3601;SDS011;1815;50.950;6.920;2022-08-03T05:33:39;2.57;;;1.70;;
3601;SDS011;1815;50.950;6.920;2022-08-03T05:36:05;2.47;;;1.80;;
3601;SDS011;1815;50.950;6.920;2022-08-03T05:38:31;2.37;;;1.47;;
3601;SDS011;1815;50.950;6.920;2022-08-03T05:40:57;2.87;;;2.30;;
3601;SDS011;1815;50.950;6.920;2022-08-03T05:43:23;2.60;;;1.53;;
3601;SDS011;1815;50.950;6.920;2022-08-03T05:45:49;1.73;;;1.47;;
3601;SDS011;1815;50.950;6.920;2022-08-03T05:48:14;4.07;;;2.67;;
3601;SDS011;1815;50.950;6.920;2022-08-03T05:50:40;2.30;;;1.40;;
3601;SDS011;1815;50.950;6.920;2022-08-03T05:53:06;2.97;;;2.00;;
3601;SDS011;1815;50.950;6.920;2022-08-03T05:55:32;3.50;;;2.60;;
3601;SDS011;1815;50.950;6.920;2022-08-03T05:57:57;3.13;;;2.20;;
3601;SDS011;1815;50.950;6.920;2022-08-03T06:00:23;6.20;;;2.70;;
3601;SDS011;1815;50.950;6.920;2022-08-03T06:02:49;4.30;;;1.80;;
3601;SDS011;1815;50.950;6.920;2022-08-03T06:05:15;4.00;;;2.27;;
3601;SDS011;1815;50.950;6.920;2022-08-03T06:07:41;6.43;;;1.87;;
3601;SDS011;1815;50.950;6.920;2022-08-03T06:10:07;4.23;;;2.20;;
3601;SDS011;1815;50.950;6.920;2022-08-03T06:12:33;4.70;;;1.77;;
3601;SDS011;1815;50.950;6.920;2022-08-03T06:15:00;2.80;;;1.60;;
3601;SDS011;1815;50.950;6.920;2022-08-03T06:17:27;7.23;;;1.87;;
3601;SDS011;1815;50.950;6.920;2022-08-03T06:19:53;2.27;;;1.50;;
3601;SDS011;1815;50.950;6.920;2022-08-03T06:22:19;3.17;;;1.53;;
3601;SDS011;1815;50.950;6.920;2022-08-03T06:24:45;2.70;;;1.63;;
3601;SDS011;1815;50.950;6.920;2022-08-03T06:27:11;4.97;;;2.00;;
3601;SDS011;1815;50.950;6.920;2022-08-03T06:29:37;2.90;;;1.70;;
3601;SDS011;1815;50.950;6.920;2022-08-03T06:32:02;2.60;;;1.57;;
3601;SDS011;1815;50.950;6.920;2022-08-03T06:34:28;2.47;;;1.20;;
3601;SDS011;1815;50.950;6.920;2022-08-03T06:36:54;3.03;;;1.43;;
3601;SDS011;1815;50.950;6.920;2022-08-03T06:39:23;2.93;;;1.20;;
3601;SDS011;1815;50.950;6.920;2022-08-03T06:41:48;2.77;;;1.30;;
3601;SDS011;1815;50.950;6.920;2022-08-03T06:44:16;1.90;;;1.10;;
3601;SDS011;1815;50.950;6.920;2022-08-03T06:46:42;2.73;;;1.30;;
3601;SDS011;1815;50.950;6.920;2022-08-03T06:49:08;5.60;;;1.60;;
3601;SDS011;1815;50.950;6.920;2022-08-03T06:51:34;2.30;;;1.40;;
3601;SDS011;1815;50.950;6.920;2022-08-03T06:54:00;2.03;;;1.50;;
3601;SDS011;1815;50.950;6.920;2022-08-03T06:56:26;6.80;;;1.73;;
3601;SDS011;1815;50.950;6.920;2022-08-03T06:58:52;2.33;;;1.40;;
3601;SDS011;1815;50.950;6.920;2022-08-03T07:01:17;2.27;;;1.30;;
3601;SDS011;1815;50.950;6.920;2022-08-03T07:03:43;2.73;;;1.33;;
3601;SDS011;1815;50.950;6.920;2022-08-03T07:06:09;1.93;;;1.20;;
3601;SDS011;1815;50.950;6.920;2022-08-03T07:08:35;4.40;;;1.90;;
3601;SDS011;1815;50.950;6.920;2022-08-03T07:11:01;1.70;;;1.10;;
3601;SDS011;1815;50.950;6.920;2022-08-03T07:13:27;4.33;;;1.20;;
3601;SDS011;1815;50.950;6.920;2022-08-03T07:15:53;2.37;;;1.27;;
3601;SDS011;1815;50.950;6.920;2022-08-03T07:18:19;3.67;;;1.37;;
3601;SDS011;1815;50.950;6.920;2022-08-03T07:20:44;3.50;;;1.33;;
3601;SDS011;1815;50.950;6.920;2022-08-03T07:23:10;2.00;;;1.20;;
3601;SDS011;1815;50.950;6.920;2022-08-03T07:25:36;3.17;;;1.33;;
3601;SDS011;1815;50.950;6.920;2022-08-03T07:28:02;3.77;;;1.50;;
3601;SDS011;1815;50.950;6.920;2022-08-03T07:30:27;1.60;;;0.90;;
3601;SDS011;1815;50.950;6.920;2022-08-03T07:32:53;2.83;;;1.10;;
3601;SDS011;1815;50.950;6.920;2022-08-03T07:35:19;4.23;;;1.13;;
3601;SDS011;1815;50.950;6.920;2022-08-03T07:37:46;2.97;;;1.30;;
3601;SDS011;1815;50.950;6.920;2022-08-03T07:40:12;1.70;;;1.10;;
3601;SDS011;1815;50.950;6.920;2022-08-03T07:42:38;3.23;;;1.50;;
3601;SDS011;1815;50.950;6.920;2022-08-03T07:45:04;2.60;;;1.10;;
3601;SDS011;1815;50.950;6.920;2022-08-03T07:47:30;2.33;;;1.10;;
3601;SDS011;1815;50.950;6.920;2022-08-03T07:49:56;3.53;;;1.27;;
3601;SDS011;1815;50.950;6.920;2022-08-03T07:52:22;2.07;;;1.20;;
3601;SDS011;1815;50.950;6.920;2022-08-03T07:55:07;3.23;;;1.80;;
3601;SDS011;1815;50.950;6.920;2022-08-03T07:57:34;2.10;;;1.23;;
3601;SDS011;1815;50.950;6.920;2022-08-03T08:00:01;3.47;;;1.30;;
3601;SDS011;1815;50.950;6.920;2022-08-03T08:02:37;4.47;;;1.20;;
3601;SDS011;1815;50.950;6.920;2022-08-03T08:05:03;3.30;;;1.03;;
3601;SDS011;1815;50.950;6.920;2022-08-03T08:07:29;2.50;;;1.00;;
3601;SDS011;1815;50.950;6.920;2022-08-03T08:09:55;4.07;;;1.10;;
3601;SDS011;1815;50.950;6.920;2022-08-03T08:12:21;2.20;;;1.53;;
3601;SDS011;1815;50.950;6.920;2022-08-03T08:14:47;1.63;;;1.07;;
3601;SDS011;1815;50.950;6.920;2022-08-03T08:17:13;2.10;;;1.30;;
3601;SDS011;1815;50.950;6.920;2022-08-03T08:19:39;1.70;;;1.03;;
3601;SDS011;1815;50.950;6.920;2022-08-03T08:22:04;3.83;;;0.90;;
3601;SDS011;1815;50.950;6.920;2022-08-03T08:24:33;3.10;;;1.30;;
3601;SDS011;1815;50.950;6.920;2022-08-03T08:26:59;2.73;;;1.23;;
3601;SDS011;1815;50.950;6.920;2022-08-03T08:29:27;2.20;;;0.80;;
3601;SDS011;1815;50.950;6.920;2022-08-03T08:31:53;1.80;;;1.10;;
3601;SDS011;1815;50.950;6.920;2022-08-03T08:34:19;2.27;;;0.80;;
3601;SDS011;1815;50.950;6.920;2022-08-03T08:36:45;2.20;;;1.00;;
3601;SDS011;1815;50.950;6.920;2022-08-03T08:39:10;2.50;;;1.03;;
3601;SDS011;1815;50.950;6.920;2022-08-03T08:41:36;3.07;;;1.20;;
3601;SDS011;1815;50.950;6.920;2022-08-03T08:44:02;2.60;;;1.10;;
3601;SDS011;1815;50.950;6.920;2022-08-03T08:46:31;4.47;;;1.10;;
3601;SDS011;1815;50.950;6.920;2022-08-03T08:48:57;3.50;;;0.90;;
3601;SDS011;1815;50.950;6.920;2022-08-03T08:51:26;2.37;;;0.87;;
3601;SDS011;1815;50.950;6.920;2022-08-03T08:53:54;1.60;;;0.90;;
3601;SDS011;1815;50.950;6.920;2022-08-03T08:56:22;1.50;;;0.97;;
3601;SDS011;1815;50.950;6.920;2022-08-03T08:58:51;1.90;;;0.90;;
3601;SDS011;1815;50.950;6.920;2022-08-03T09:01:27;1.47;;;1.00;;
3601;SDS011;1815;50.950;6.920;2022-08-03T09:03:53;1.60;;;0.90;;
3601;SDS011;1815;50.950;6.920;2022-08-03T09:06:19;7.10;;;0.90;;
3601;SDS011;1815;50.950;6.920;2022-08-03T09:08:46;3.13;;;1.03;;
3601;SDS011;1815;50.950;6.920;2022-08-03T09:11:12;4.13;;;0.90;;
3601;SDS011;1815;50.950;6.920;2022-08-03T09:13:38;2.53;;;1.00;;
3601;SDS011;1815;50.950;6.920;2022-08-03T09:18:38;1.60;;;0.90;;
3601;SDS011;1815;50.950;6.920;2022-08-03T09:21:12;2.73;;;1.00;;
3601;SDS011;1815;50.950;6.920;2022-08-03T09:23:45;6.60;;;1.10;;
3601;SDS011;1815;50.950;6.920;2022-08-03T09:26:23;2.07;;;1.10;;
3601;SDS011;1815;50.950;6.920;2022-08-03T09:28:58;2.87;;;0.90;;
3601;SDS011;1815;50.950;6.920;2022-08-03T09:31:35;2.50;;;0.80;;
3601;SDS011;1815;50.950;6.920;2022-08-03T09:34:07;2.20;;;1.07;;
3601;SDS011;1815;50.950;6.920;2022-08-03T09:36:35;2.63;;;1.00;;
3601;SDS011;1815;50.950;6.920;2022-08-03T09:39:11;2.70;;;1.00;;
3601;SDS011;1815;50.950;6.920;2022-08-03T09:41:39;1.90;;;1.03;;
3601;SDS011;1815;50.950;6.920;2022-08-03T09:44:07;2.23;;;0.80;;
3601;SDS011;1815;50.950;6.920;2022-08-03T09:46:52;2.70;;;1.10;;
3601;SDS011;1815;50.950;6.920;2022-08-03T09:49:19;2.40;;;0.90;;
3601;SDS011;1815;50.950;6.920;2022-08-03T09:51:45;2.47;;;0.80;;
3601;SDS011;1815;50.950;6.920;2022-08-03T09:54:11;3.80;;;0.90;;
3601;SDS011;1815;50.950;6.920;2022-08-03T09:56:43;2.07;;;1.00;;
3601;SDS011;1815;50.950;6.920;2022-08-03T09:59:12;6.07;;;1.33;;
3601;SDS011;1815;50.950;6.920;2022-08-03T10:01:47;4.43;;;1.03;;
3601;SDS011;1815;50.950;6.920;2022-08-03T10:04:13;1.90;;;0.77;;
3601;SDS011;1815;50.950;6.920;2022-08-03T10:06:44;2.57;;;0.60;;
3601;SDS011;1815;50.950;6.920;2022-08-03T10:09:25;1.60;;;0.70;;
3601;SDS011;1815;50.950;6.920;2022-08-03T10:11:51;2.00;;;1.00;;
3601;SDS011;1815;50.950;6.920;2022-08-03T10:14:17;2.17;;;1.50;;
3601;SDS011;1815;50.950;6.920;2022-08-03T10:16:43;2.03;;;0.90;;
3601;SDS011;1815;50.950;6.920;2022-08-03T10:19:10;1.50;;;0.70;;
3601;SDS011;1815;50.950;6.920;2022-08-03T10:21:38;2.30;;;0.80;;
3601;SDS011;1815;50.950;6.920;2022-08-03T10:24:07;2.03;;;0.87;;
3601;SDS011;1815;50.950;6.920;2022-08-03T10:26:35;5.27;;;1.30;;
3601;SDS011;1815;50.950;6.920;2022-08-03T10:29:05;3.67;;;3.27;;
3601;SDS011;1815;50.950;6.920;2022-08-03T10:31:40;2.60;;;1.60;;
3601;SDS011;1815;50.950;6.920;2022-08-03T10:34:21;2.63;;;1.00;;
3601;SDS011;1815;50.950;6.920;2022-08-03T10:36:51;2.60;;;0.83;;
3601;SDS011;1815;50.950;6.920;2022-08-03T10:39:23;4.00;;;0.90;;
3601;SDS011;1815;50.950;6.920;2022-08-03T10:41:52;6.47;;;0.80;;
3601;SDS011;1815;50.950;6.920;2022-08-03T10:44:22;2.13;;;0.70;;
3601;SDS011;1815;50.950;6.920;2022-08-03T10:46:50;3.13;;;0.70;;
3601;SDS011;1815;50.950;6.920;2022-08-03T10:49:17;1.60;;;0.60;;
3601;SDS011;1815;50.950;6.920;2022-08-03T10:51:45;2.37;;;0.80;;
3601;SDS011;1815;50.950;6.920;2022-08-03T11:00:14;1.50;;;0.70;;
3601;SDS011;1815;50.950;6.920;2022-08-03T11:05:31;3.20;;;0.80;;
3601;SDS011;1815;50.950;6.920;2022-08-03T11:10:48;2.27;;;0.70;;
3601;SDS011;1815;50.950;6.920;2022-08-03T11:13:15;2.33;;;0.80;;
3601;SDS011;1815;50.950;6.920;2022-08-03T11:15:44;2.83;;;0.80;;
3601;SDS011;1815;50.950;6.920;2022-08-03T11:18:12;3.57;;;1.40;;
3601;SDS011;1815;50.950;6.920;2022-08-03T11:20:48;3.60;;;2.20;;
3601;SDS011;1815;50.950;6.920;2022-08-03T11:23:17;1.60;;;1.00;;
3601;SDS011;1815;50.950;6.920;2022-08-03T11:28:47;3.10;;;0.70;;
3601;SDS011;1815;50.950;6.920;2022-08-03T11:34:06;2.70;;;0.80;;
3601;SDS011;1815;50.950;6.920;2022-08-03T11:39:40;2.63;;;1.10;;
3601;SDS011;1815;50.950;6.920;2022-08-03T11:44:50;2.17;;;0.80;;
3601;SDS011;1815;50.950;6.920;2022-08-03T11:47:21;2.90;;;0.93;;
3601;SDS011;1815;50.950;6.920;2022-08-03T11:49:49;2.40;;;0.90;;
3601;SDS011;1815;50.950;6.920;2022-08-03T11:52:16;2.20;;;1.00;;
3601;SDS011;1815;50.950;6.920;2022-08-03T11:54:42;2.90;;;1.40;;
3601;SDS011;1815;50.950;6.920;2022-08-03T11:57:08;2.57;;;0.90;;
3601;SDS011;1815;50.950;6.920;2022-08-03T11:59:35;6.53;;;1.10;;
3601;SDS011;1815;50.950;6.920;2022-08-03T12:02:08;1.70;;;0.80;;
3601;SDS011;1815;50.950;6.920;2022-08-03T12:07:27;3.57;;;0.93;;
3601;SDS011;1815;50.950;6.920;2022-08-03T12:10:07;2.03;;;1.00;;
3601;SDS011;1815;50.950;6.920;2022-08-03T12:12:37;4.37;;;0.70;;
3601;SDS011;1815;50.950;6.920;2022-08-03T12:15:04;6.77;;;1.40;;
3601;SDS011;1815;50.950;6.920;2022-08-03T12:17:40;3.40;;;1.10;;
3601;SDS011;1815;50.950;6.920;2022-08-03T12:20:07;2.67;;;0.83;;
3601;SDS011;1815;50.950;6.920;2022-08-03T12:22:35;1.80;;;0.73;;
3601;SDS011;1815;50.950;6.920;2022-08-03T12:25:08;2.23;;;0.87;;
3601;SDS011;1815;50.950;6.920;2022-08-03T12:27:44;1.90;;;0.80;;
3601;SDS011;1815;50.950;6.920;2022-08-03T12:30:11;2.23;;;0.80;;
3601;SDS011;1815;50.950;6.920;2022-08-03T12:32:37;1.60;;;0.67;;
3601;SDS011;1815;50.950;6.920;2022-08-03T12:35:03;1.60;;;0.70;;
3601;SDS011;1815;50.950;6.920;2022-08-03T12:37:30;3.33;;;0.80;;
3601;SDS011;1815;50.950;6.920;2022-08-03T12:39:57;2.27;;;1.20;;
3601;SDS011;1815;50.950;6.920;2022-08-03T12:42:29;2.67;;;0.90;;
3601;SDS011;1815;50.950;6.920;2022-08-03T12:44:59;2.80;;;1.10;;
3601;SDS011;1815;50.950;6.920;2022-08-03T12:47:48;2.83;;;0.83;;
3601;SDS011;1815;50.950;6.920;2022-08-03T12:50:28;3.07;;;1.60;;
3601;SDS011;1815;50.950;6.920;2022-08-03T12:52:59;3.00;;;1.40;;
3601;SDS011;1815;50.950;6.920;2022-08-03T12:55:26;4.53;;;1.43;;
3601;SDS011;1815;50.950;6.920;2022-08-03T12:58:07;3.63;;;1.40;;
3601;SDS011;1815;50.950;6.920;2022-08-03T13:00:35;5.87;;;2.83;;
3601;SDS011;1815;50.950;6.920;2022-08-03T13:03:07;3.57;;;1.90;;
3601;SDS011;1815;50.950;6.920;2022-08-03T13:05:45;2.27;;;1.30;;
3601;SDS011;1815;50.950;6.920;2022-08-03T13:08:20;3.57;;;1.07;;
3601;SDS011;1815;50.950;6.920;2022-08-03T13:10:47;2.20;;;0.90;;
3601;SDS011;1815;50.950;6.920;2022-08-03T13:13:14;2.00;;;1.17;;
3601;SDS011;1815;50.950;6.920;2022-08-03T13:15:40;1.90;;;0.80;;
3601;SDS011;1815;50.950;6.920;2022-08-03T13:18:06;2.20;;;1.00;;
3601;SDS011;1815;50.950;6.920;2022-08-03T13:20:33;3.30;;;0.90;;
3601;SDS011;1815;50.950;6.920;2022-08-03T13:22:59;2.27;;;0.97;;
3601;SDS011;1815;50.950;6.920;2022-08-03T13:25:27;2.37;;;0.70;;
3601;SDS011;1815;50.950;6.920;2022-08-03T13:27:52;4.60;;;1.73;;
3601;SDS011;1815;50.950;6.920;2022-08-03T13:30:18;2.27;;;0.73;;
3601;SDS011;1815;50.950;6.920;2022-08-03T13:32:44;2.90;;;0.90;;
3601;SDS011;1815;50.950;6.920;2022-08-03T13:35:09;2.17;;;0.70;;
3601;SDS011;1815;50.950;6.920;2022-08-03T13:37:36;2.53;;;0.70;;
3601;SDS011;1815;50.950;6.920;2022-08-03T13:40:03;2.17;;;1.00;;
3601;SDS011;1815;50.950;6.920;2022-08-03T13:42:31;3.90;;;1.07;;
3601;SDS011;1815;50.950;6.920;2022-08-03T13:44:58;3.27;;;0.80;;
3601;SDS011;1815;50.950;6.920;2022-08-03T13:47:26;2.43;;;1.23;;
3601;SDS011;1815;50.950;6.920;2022-08-03T13:49:52;4.53;;;1.30;;
3601;SDS011;1815;50.950;6.920;2022-08-03T13:52:19;2.40;;;1.87;;
3601;SDS011;1815;50.950;6.920;2022-08-03T13:54:44;2.00;;;1.20;;
3601;SDS011;1815;50.950;6.920;2022-08-03T13:57:10;2.33;;;1.33;;
3601;SDS011;1815;50.950;6.920;2022-08-03T13:59:36;3.90;;;1.10;;
3601;SDS011;1815;50.950;6.920;2022-08-03T14:02:02;3.33;;;1.03;;
3601;SDS011;1815;50.950;6.920;2022-08-03T14:04:28;2.47;;;0.80;;
3601;SDS011;1815;50.950;6.920;2022-08-03T14:06:54;2.30;;;0.90;;
3601;SDS011;1815;50.950;6.920;2022-08-03T14:09:20;2.90;;;1.10;;
3601;SDS011;1815;50.950;6.920;2022-08-03T14:11:46;2.90;;;1.47;;
3601;SDS011;1815;50.950;6.920;2022-08-03T14:14:12;1.97;;;0.90;;
3601;SDS011;1815;50.950;6.920;2022-08-03T14:16:38;5.30;;;1.60;;
3601;SDS011;1815;50.950;6.920;2022-08-03T14:19:04;2.67;;;1.50;;
3601;SDS011;1815;50.950;6.920;2022-08-03T14:21:31;5.27;;;1.63;;
3601;SDS011;1815;50.950;6.920;2022-08-03T14:23:58;2.37;;;0.80;;
3601;SDS011;1815;50.950;6.920;2022-08-03T14:26:24;2.63;;;0.87;;
3601;SDS011;1815;50.950;6.920;2022-08-03T14:28:50;1.93;;;0.83;;
3601;SDS011;1815;50.950;6.920;2022-08-03T14:31:16;2.87;;;0.80;;
3601;SDS011;1815;50.950;6.920;2022-08-03T14:33:41;2.10;;;0.73;;
3601;SDS011;1815;50.950;6.920;2022-08-03T14:36:07;4.80;;;0.90;;
3601;SDS011;1815;50.950;6.920;2022-08-03T14:38:33;4.03;;;1.10;;
3601;SDS011;1815;50.950;6.920;2022-08-03T14:40:59;4.30;;;1.10;;
3601;SDS011;1815;50.950;6.920;2022-08-03T14:43:24;6.70;;;0.97;;
3601;SDS011;1815;50.950;6.920;2022-08-03T14:45:51;1.60;;;0.80;;
3601;SDS011;1815;50.950;6.920;2022-08-03T14:48:21;3.60;;;1.70;;
3601;SDS011;1815;50.950;6.920;2022-08-03T14:50:48;3.13;;;1.40;;
3601;SDS011;1815;50.950;6.920;2022-08-03T14:53:16;2.40;;;1.50;;
3601;SDS011;1815;50.950;6.920;2022-08-03T14:55:43;3.57;;;1.20;;
3601;SDS011;1815;50.950;6.920;2022-08-03T14:58:10;4.23;;;1.10;;
3601;SDS011;1815;50.950;6.920;2022-08-03T15:00:36;3.77;;;0.80;;
3601;SDS011;1815;50.950;6.920;2022-08-03T15:03:02;1.80;;;0.90;;
3601;SDS011;1815;50.950;6.920;2022-08-03T15:05:28;2.80;;;1.07;;
3601;SDS011;1815;50.950;6.920;2022-08-03T15:07:54;4.23;;;0.77;;
3601;SDS011;1815;50.950;6.920;2022-08-03T15:10:20;1.60;;;0.80;;
3601;SDS011;1815;50.950;6.920;2022-08-03T15:12:46;4.60;;;1.17;;
3601;SDS011;1815;50.950;6.920;2022-08-03T15:15:12;2.10;;;1.37;;
3601;SDS011;1815;50.950;6.920;2022-08-03T15:17:38;2.83;;;1.40;;
3601;SDS011;1815;50.950;6.920;2022-08-03T15:20:04;3.87;;;1.00;;
3601;SDS011;1815;50.950;6.920;2022-08-03T15:22:30;3.73;;;0.93;;
3601;SDS011;1815;50.950;6.920;2022-08-03T15:24:56;2.73;;;1.10;;
3601;SDS011;1815;50.950;6.920;2022-08-03T15:27:22;3.30;;;1.73;;
3601;SDS011;1815;50.950;6.920;2022-08-03T15:29:48;2.43;;;1.00;;
3601;SDS011;1815;50.950;6.920;2022-08-03T15:32:14;1.90;;;0.83;;
3601;SDS011;1815;50.950;6.920;2022-08-03T15:34:40;1.93;;;0.70;;
3601;SDS011;1815;50.950;6.920;2022-08-03T15:37:05;1.83;;;0.70;;
3601;SDS011;1815;50.950;6.920;2022-08-03T15:39:31;3.60;;;2.53;;
3601;SDS011;1815;50.950;6.920;2022-08-03T15:41:57;2.53;;;1.97;;
3601;SDS011;1815;50.950;6.920;2022-08-03T15:44:23;2.20;;;1.53;;
3601;SDS011;1815;50.950;6.920;2022-08-03T15:46:51;5.03;;;4.03;;
3601;SDS011;1815;50.950;6.920;2022-08-03T15:49:17;3.83;;;2.63;;
3601;SDS011;1815;50.950;6.920;2022-08-03T15:51:45;2.40;;;1.30;;
3601;SDS011;1815;50.950;6.920;2022-08-03T15:54:11;2.50;;;0.90;;
3601;SDS011;1815;50.950;6.920;2022-08-03T15:56:37;3.43;;;1.20;;
3601;SDS011;1815;50.950;6.920;2022-08-03T15:59:03;1.60;;;0.90;;